KRIL/RIL METAR and TAF weather

Enter ICAO airport designator
Station Type Date Time Source
KRIL METAR 2018/12/13 21:53 UTC NOAA

KRIL 132153Z AUTO 00000KT 10SM CLR M01/M12 A3040 RMK AO2 SLP321 T10061122


Station Type Date Time Source
KRIL Decoded METAR 2018/12/13 21:53 UTC NOAA

RIFLE GARFIELD COUNTY RGNL, CO, United States (KRIL) 39-31N 107-44W 1678M
Dec 13, 2018 - 04:53 PM EST / 2018.12.13 2153 UTC
Wind: Calm:0
Visibility: 10 mile(s):0
Sky conditions: clear
Temperature: 30.9 F (-0.6 C)
Dew Point: 10.0 F (-12.2 C)
Relative Humidity: 41%
Pressure (altimeter): 30.4 in. Hg (1029 hPa)
ob: KRIL 132153Z AUTO 00000KT 10SM CLR M01/M12 A3040 RMK AO2 SLP321 T10061122
cycle: 22

Station Type Date Time Source
KRIL TAF 2018/12/13 18:28 UTC NOAA

TAF KRIL 131726Z 1318/1418 VRB06KT P6SM SKC


Example: see airport list